Delta Virtual Airport Information Service

Providence Theodore Francis Green Airport

ICAO: KPVD Country: United States
Latitude: 41.724 Longitude: -71.4282
Latest Arrival : AAL801 (2A) (KPHL-KPVD) Latest Departure : RPA4545 (2B) (KPVD-KPHL)


WX CaptureLIVE
Data provided by noaa.gov | Fetched at 04:41:23

METAR : KPVD 030951Z 28018G33KT 10SM FEW046 07/M02 A2965 RMK AO2 PK WND 29033/0947 SLP040 T00671022

TAF : KPVD 030904Z 0309/0406 27004KT P6SM FEW045 FM031100 29014G22KT P6SM FEW070 FM031700 29013G27KT P6SM SKC FM040000 29008KT P6SM SKC


Runway Data for KPVD
Data provided by openaviationdata.com

Runway ID Mag Var Hdg Length Elevation Surface ILS Freq ILS Id ILS Slope
5 -14 46° 7166 ft 55 ft Asphalt 109.3 IPVD 3
16 -14 155° 6080 ft 55 ft Asphalt -- -- --
23 -14 226° 7166 ft 55 ft Asphalt 109.3 IARJ 3
34 -14 335° 6080 ft 55 ft Asphalt 111.5 IUNQ 3

Providence Theodore Francis Green Airport, United States
Use only for reference purposes



Not for navigational purposes.